Time;durP1;ratioP1;P1;durP2;ratioP2;P2;SDS_P1;SDS_P2;PMS_P1;PMS_P2;Temp;Humidity;BMP_temperature;BMP_pressure;BME280_temperature;BME280_humidity;BME280_pressure;Samples;Min_cycle;Max_cycle;Signal;HPM_P1;HPM_P2
2022/12/09 00:01:59;;;;;;;57.17;29.83;;;;;;;-1.42;75.71;100149.72;6094973;23;20093;-71
2022/12/09 00:04:26;;;;;;;57.75;30.13;;;;;;;-1.45;75.87;100151.69;6094799;23;20030;-71
2022/12/09 00:06:53;;;;;;;57.70;28.77;;;;;;;-1.45;75.65;100160.41;6095776;23;20026;-71
2022/12/09 00:09:19;;;;;;;54.38;29.25;;;;;;;-1.42;75.40;100164.66;6095099;23;20022;-72
2022/12/09 00:11:46;;;;;;;55.42;29.27;;;;;;;-1.42;75.62;100162.88;6095013;23;20022;-71
2022/12/09 00:14:12;;;;;;;59.05;29.10;;;;;;;-1.40;75.28;100168.03;6094847;23;20045;-71
2022/12/09 00:16:39;;;;;;;56.50;29.13;;;;;;;-1.48;75.84;100171.13;6094942;23;20033;-72
2022/12/09 00:19:06;;;;;;;63.55;31.40;;;;;;;-1.47;75.68;100167.59;6094584;23;20032;-71
2022/12/09 00:21:33;;;;;;;59.45;29.98;;;;;;;-1.44;75.38;100175.28;6094086;23;20022;-72
2022/12/09 00:24:03;;;;;;;61.80;30.65;;;;;;;-1.45;75.54;100170.09;6094552;23;20021;-71
2022/12/09 00:26:31;;;;;;;60.35;30.10;;;;;;;-1.50;75.69;100173.03;6094663;23;20018;-72
2022/12/09 00:28:58;;;;;;;57.20;28.58;;;;;;;-1.47;75.72;100172.84;6094080;23;20036;-72
2022/12/09 00:31:27;;;;;;;59.95;31.10;;;;;;;-1.49;75.55;100169.44;6094905;23;20076;-72
2022/12/09 00:33:56;;;;;;;58.65;30.52;;;;;;;-1.50;75.84;100165.16;6092532;23;20071;-72
2022/12/09 00:36:24;;;;;;;59.42;30.05;;;;;;;-1.51;75.34;100168.69;6093438;23;20018;-72
2022/12/09 00:38:52;;;;;;;54.47;29.25;;;;;;;-1.56;75.85;100170.78;6094652;23;20507;-71
2022/12/09 00:41:18;;;;;;;58.58;30.50;;;;;;;-1.53;75.74;100177.66;6094065;23;20074;-72
2022/12/09 00:43:45;;;;;;;56.38;28.80;;;;;;;-1.66;75.93;100178.41;6094532;23;20101;-72
2022/12/09 00:46:13;;;;;;;56.08;29.17;;;;;;;-1.74;75.69;100180.66;6094348;23;20097;-72
2022/12/09 00:48:40;;;;;;;61.85;31.38;;;;;;;-1.74;76.39;100185.09;6094299;23;20041;-72
2022/12/09 00:51:12;;;;;;;59.53;31.02;;;;;;;-1.64;75.97;100183.56;6094119;23;20358;-71
2022/12/09 00:53:38;;;;;;;;;;;;;;;-1.64;75.65;100183.56;6077693;23;20088;-72
2022/12/09 00:56:05;;;;;;;57.88;28.92;;;;;;;-1.66;75.73;100188.06;6123340;23;19917;-72
2022/12/09 00:58:32;;;;;;;65.97;30.70;;;;;;;-1.87;76.34;100193.72;6123106;23;20046;-72
2022/12/09 01:00:59;;;;;;;57.88;29.58;;;;;;;-1.77;75.99;100195.78;6122965;23;20034;-71
2022/12/09 01:03:26;;;;;;;57.08;28.88;;;;;;;-1.81;76.12;100194.28;6123447;23;20026;-72
2022/12/09 01:05:54;;;;;;;57.80;29.65;;;;;;;-1.86;75.88;100197.19;6123227;23;20021;-72
2022/12/09 01:08:21;;;;;;;58.67;30.50;;;;;;;-1.92;76.17;100203.66;6123354;23;20021;-72
2022/12/09 01:10:48;;;;;;;56.95;30.08;;;;;;;-1.97;76.20;100203.09;6123159;23;20032;-72
2022/12/09 01:13:14;;;;;;;57.05;29.30;;;;;;;-1.87;76.22;100195.50;6123062;23;20029;-72
2022/12/09 01:15:42;;;;;;;61.47;31.27;;;;;;;-1.84;76.13;100208.47;6122833;23;20026;-72
2022/12/09 01:18:10;;;;;;;58.40;30.67;;;;;;;-1.78;75.55;100205.47;6123182;23;20092;-71
2022/12/09 01:20:37;;;;;;;66.32;31.85;;;;;;;-1.79;75.75;100198.50;6122590;23;20533;-71
2022/12/09 01:23:04;;;;;;;59.70;30.92;;;;;;;-1.80;75.75;100203.84;6123207;23;20037;-71
2022/12/09 01:25:31;;;;;;;66.47;31.10;;;;;;;-1.78;75.66;100199.34;6123094;23;20477;-71
2022/12/09 01:27:58;;;;;;;68.30;33.65;;;;;;;-1.95;76.00;100201.22;6122760;23;20025;-71
2022/12/09 01:30:25;;;;;;;66.57;30.83;;;;;;;-1.96;76.47;100196.03;6123659;23;20052;-72
2022/12/09 01:32:51;;;;;;;62.55;30.27;;;;;;;-1.99;76.34;100196.22;6094062;23;20460;-72
2022/12/09 01:35:18;;;;;;;63.05;30.35;;;;;;;-1.97;76.45;100194.38;6094091;23;20396;-72
2022/12/09 01:37:45;;;;;;;60.97;29.98;;;;;;;-1.90;76.02;100201.78;6093606;23;20023;-72
2022/12/09 01:40:15;;;;;;;64.32;30.58;;;;;;;-1.83;75.51;100189.09;6093937;23;20093;-72
2022/12/09 01:42:42;;;;;;;56.55;29.15;;;;;;;-1.80;75.84;100188.91;6093104;23;20054;-73
2022/12/09 01:45:18;;;;;;;54.97;27.00;;;;;;;-1.81;75.89;100189.88;6093831;23;20022;-72
2022/12/09 01:48:10;;;;;;;63.80;31.40;;;;;;;-1.81;75.67;100187.25;6093009;23;20359;-72
2022/12/09 01:50:41;;;;;;;56.78;28.63;;;;;;;-1.88;76.41;100193.81;6122295;23;20041;-72
2022/12/09 01:53:10;;;;;;;61.17;30.00;;;;;;;-2.04;76.56;100196.50;6121348;23;20033;-73
2022/12/09 01:55:38;;;;;;;61.70;30.17;;;;;;;-2.07;77.02;100198.47;6123074;23;20057;-73
2022/12/09 01:58:04;;;;;;;61.03;29.08;;;;;;;-2.01;77.02;100198.13;6122924;23;20116;-71
2022/12/09 02:00:31;;;;;;;66.00;30.95;;;;;;;-2.19;76.69;100194.81;6122657;23;20383;-73
2022/12/09 02:02:59;;;;;;;58.25;28.33;;;;;;;-1.91;76.49;100201.88;6122503;23;20053;-71
2022/12/09 02:09:12;;;;;;;61.83;28.95;;;;;;;-1.77;75.92;100204.50;6122323;23;20073;-72
2022/12/09 02:12:12;;;;;;;60.85;30.67;;;;;;;-1.84;76.15;100207.63;6122321;23;20399;-72
2022/12/09 02:14:44;;;;;;;60.05;29.05;;;;;;;-1.70;76.22;100195.31;6122613;23;20028;-72
2022/12/09 02:17:31;;;;;;;57.42;27.50;;;;;;;-1.65;75.95;100198.47;6123013;23;20021;-72
2022/12/09 02:20:15;;;;;;;56.15;27.33;;;;;;;-1.72;75.79;100188.44;6122588;23;20018;-69
2022/12/09 02:22:46;;;;;;;53.42;27.25;;;;;;;-1.73;75.61;100197.28;6122605;23;20337;-72
2022/12/09 02:25:24;;;;;;;39.78;19.88;;;;;;;-1.67;75.80;100196.91;6122905;23;20093;-72
2022/12/09 02:28:25;;;;;;;54.20;26.65;;;;;;;-1.58;76.05;100191.06;6123011;23;20025;-72
2022/12/09 02:31:13;;;;;;;54.45;26.35;;;;;;;-1.75;75.46;100189.50;6122584;23;20076;-72
2022/12/09 02:34:14;;;;;;;49.17;25.02;;;;;;;-1.61;75.44;100183.38;6113695;23;20018;-71
2022/12/09 02:36:57;;;;;;;47.80;23.65;;;;;;;-1.69;75.83;100188.25;6122395;23;20029;-71
2022/12/09 02:39:51;;;;;;;46.28;24.52;;;;;;;-1.69;76.39;100181.22;6122922;23;20028;-71
2022/12/09 02:42:21;;;;;;;45.60;23.95;;;;;;;-1.60;76.05;100179.81;6122531;23;20024;-71
2022/12/09 02:44:50;;;;;;;48.22;24.80;;;;;;;-1.47;75.75;100174.59;6122680;23;20037;-71
2022/12/09 02:47:23;;;;;;;50.00;25.55;;;;;;;-1.43;75.13;100169.06;6122923;23;20044;-72
2022/12/09 02:49:56;;;;;;;55.08;25.48;;;;;;;-1.36;75.46;100173.97;6124512;23;20022;-72
2022/12/09 02:52:23;;;;;;;46.25;24.08;;;;;;;-1.38;75.14;100166.97;6124737;23;20017;-71
2022/12/09 02:54:50;;;;;;;47.00;23.83;;;;;;;-1.35;75.32;100170.38;6124502;23;20033;-71
2022/12/09 02:57:23;;;;;;;44.90;24.10;;;;;;;-1.55;75.16;100169.84;6124473;23;20018;-72
2022/12/09 02:59:50;;;;;;;45.35;24.50;;;;;;;-1.49;75.80;100164.19;6124433;23;20022;-72
2022/12/09 03:02:22;;;;;;;44.50;22.92;;;;;;;-1.36;75.31;100173.97;6124302;23;20049;-72
2022/12/09 03:05:24;;;;;;;48.03;23.95;;;;;;;-1.60;76.10;100173.72;6124033;23;20038;-72
2022/12/09 03:08:01;;;;;;;43.20;22.55;;;;;;;-1.50;75.43;100173.03;6123764;23;20387;-72
2022/12/09 03:10:28;;;;;;;43.42;23.40;;;;;;;-1.45;75.21;100176.22;6123760;23;20026;-72
2022/12/09 03:13:04;;;;;;;43.40;23.77;;;;;;;-2.20;76.91;100180.84;6124574;23;20352;-72
2022/12/09 03:15:36;;;;;;;44.17;23.63;;;;;;;-2.22;78.13;100177.44;6124143;23;20028;-72
2022/12/09 03:18:05;;;;;;;;;;;;;;;-1.86;77.38;100176.97;6124647;23;20045;-71
2022/12/09 03:20:36;;;;;;;42.00;22.70;;;;;;;-1.59;76.60;100173.59;6124249;23;19941;-72
2022/12/09 03:23:05;;;;;;;45.90;23.25;;;;;;;-1.66;76.26;100167.03;6123931;23;20101;-71
2022/12/09 03:25:38;;;;;;;46.70;24.92;;;;;;;-1.72;76.25;100173.50;6123935;23;20032;-71
2022/12/09 03:28:12;;;;;;;46.97;24.08;;;;;;;-1.42;75.48;100178.66;6124072;23;20014;-71
2022/12/09 03:30:43;;;;;;;45.92;23.23;;;;;;;-1.42;75.59;100175.19;6124508;23;20014;-72
2022/12/09 03:33:11;;;;;;;;;;;;;;;-1.46;75.70;100169.25;6124889;23;20081;-72
2022/12/09 03:35:43;;;;;;;47.60;23.67;;;;;;;-1.53;75.60;100167.13;6124571;23;19925;-71
2022/12/09 03:38:14;;;;;;;44.33;22.48;;;;;;;-1.74;75.96;100178.03;6124281;23;20463;-72
2022/12/09 03:40:41;;;;;;;;;;;;;;;-1.65;76.20;100176.59;6124476;23;20037;-71
2022/12/09 03:43:13;;;;;;;42.55;22.63;;;;;;;-1.67;75.81;100183.75;6124222;23;20369;-71
2022/12/09 03:45:40;;;;;;;48.45;24.08;;;;;;;-1.55;75.54;100177.72;6124356;23;20053;-71
2022/12/09 03:48:08;;;;;;;44.47;24.13;;;;;;;-1.50;74.87;100177.47;6123781;23;20355;-71
2022/12/09 03:50:49;;;;;;;46.42;24.83;;;;;;;-1.83;75.68;100172.50;6124683;23;20077;-71
2022/12/09 03:53:22;;;;;;;47.45;24.80;;;;;;;-1.75;75.52;100175.47;6124109;23;20032;-71
2022/12/09 03:56:09;;;;;;;53.38;24.88;;;;;;;-1.57;75.20;100171.72;6124711;23;20041;-71
2022/12/09 03:58:38;;;;;;;43.67;23.15;;;;;;;-1.81;75.19;100168.84;6119910;23;20033;-71
2022/12/09 04:01:06;;;;;;;51.50;24.05;;;;;;;-1.70;75.52;100173.44;6123843;23;20014;-70
2022/12/09 04:03:33;;;;;;;46.42;23.90;;;;;;;-1.63;75.02;100167.69;6124259;23;20077;-72
2022/12/09 04:06:00;;;;;;;51.00;25.83;;;;;;;-1.64;75.13;100168.63;6124169;23;20022;-72
2022/12/09 04:08:27;;;;;;;47.92;24.90;;;;;;;-1.67;75.33;100171.44;6124597;23;20069;-72
2022/12/09 04:10:54;;;;;;;47.88;25.60;;;;;;;-1.89;75.59;100165.81;6124204;23;20021;-73
2022/12/09 04:13:21;;;;;;;45.10;23.42;;;;;;;-1.70;75.64;100170.81;6123879;23;20018;-72
2022/12/09 04:15:47;;;;;;;53.47;24.98;;;;;;;-1.62;75.08;100173.78;6124181;23;20021;-73
2022/12/09 04:18:14;;;;;;;53.20;26.15;;;;;;;-1.66;75.45;100172.28;6122861;23;20026;-73
2022/12/09 04:20:41;;;;;;;48.80;23.60;;;;;;;-2.06;75.76;100169.50;6098455;23;20025;-72
2022/12/09 04:23:07;;;;;;;49.92;24.20;;;;;;;-2.02;76.57;100165.75;6123495;23;20026;-72
2022/12/09 04:25:36;;;;;;;50.45;24.20;;;;;;;-1.79;76.17;100166.09;6124420;23;20100;-73
2022/12/09 04:28:02;;;;;;;42.08;22.88;;;;;;;-1.82;75.54;100163.66;6124405;23;20024;-72
2022/12/09 04:30:29;;;;;;;49.33;24.40;;;;;;;-1.70;75.56;100165.53;6124403;23;20049;-72
2022/12/09 04:32:58;;;;;;;47.65;24.25;;;;;;;-1.71;75.55;100163.88;6124108;23;20025;-73
2022/12/09 04:35:26;;;;;;;42.70;23.55;;;;;;;-2.10;76.25;100173.22;6123965;23;20064;-71
2022/12/09 04:37:53;;;;;;;45.55;23.80;;;;;;;-2.04;76.37;100167.59;6124078;23;20097;-72
2022/12/09 04:40:19;;;;;;;44.22;23.60;;;;;;;-1.82;75.60;100153.13;6123496;23;20022;-72
2022/12/09 04:42:49;;;;;;;45.95;24.00;;;;;;;-2.07;76.61;100157.28;6124035;23;20410;-72
2022/12/09 04:45:16;;;;;;;50.42;25.08;;;;;;;-1.77;76.11;100167.69;6123519;23;20022;-72
2022/12/09 04:47:43;;;;;;;48.00;23.88;;;;;;;-1.90;75.87;100172.84;6122883;23;20367;-72
2022/12/09 04:50:10;;;;;;;42.08;22.85;;;;;;;-1.89;76.06;100165.81;6124341;23;20022;-72
2022/12/09 04:52:38;;;;;;;47.38;24.02;;;;;;;-2.22;77.28;100171.34;6123940;23;20018;-72
2022/12/09 04:55:05;;;;;;;42.13;23.02;;;;;;;-2.16;77.04;100174.47;6123563;23;20022;-70
2022/12/09 04:57:32;;;;;;;41.72;22.33;;;;;;;-1.85;76.12;100172.59;6124376;23;20043;-71
2022/12/09 04:59:58;;;;;;;43.90;22.15;;;;;;;-1.64;75.59;100167.78;6123834;23;20025;-72
2022/12/09 05:02:25;;;;;;;46.03;23.08;;;;;;;-1.79;75.81;100169.56;6123181;23;20022;-71
2022/12/09 05:04:52;;;;;;;43.60;22.63;;;;;;;-1.58;75.35;100170.03;6122431;23;20032;-72
2022/12/09 05:07:19;;;;;;;46.90;23.90;;;;;;;-1.62;75.50;100161.47;6123428;23;20363;-73
2022/12/09 05:09:46;;;;;;;42.88;22.83;;;;;;;-1.49;74.54;100164.19;6123111;23;20033;-72
2022/12/09 05:12:13;;;;;;;44.72;22.25;;;;;;;-1.56;74.76;100168.16;6122883;23;20072;-72
2022/12/09 05:14:40;;;;;;;43.72;23.20;;;;;;;-1.65;75.65;100163.44;6123342;23;20033;-72
2022/12/09 05:17:06;;;;;;;43.40;23.00;;;;;;;-1.49;74.78;100153.66;6123050;23;20100;-73
2022/12/09 05:19:33;;;;;;;43.97;23.45;;;;;;;-1.48;74.61;100149.25;6123369;23;20076;-69
2022/12/09 05:21:59;;;;;;;47.78;24.02;;;;;;;-1.45;74.29;100155.16;6124065;23;20022;-73
2022/12/09 05:24:26;;;;;;;43.95;24.17;;;;;;;-1.49;74.78;100152.81;6123736;23;20030;-72
2022/12/09 05:26:53;;;;;;;50.05;24.27;;;;;;;-1.44;74.67;100158.63;6123367;23;20030;-72
2022/12/09 05:29:20;;;;;;;42.75;22.80;;;;;;;-1.62;74.66;100163.25;6123462;23;20403;-72
2022/12/09 05:31:50;;;;;;;47.42;23.88;;;;;;;-1.55;74.83;100171.63;6123413;23;20026;-72
2022/12/09 05:34:17;;;;;;;44.58;22.85;;;;;;;-1.97;76.51;100170.72;6123026;23;20024;-71
2022/12/09 05:36:44;;;;;;;45.72;22.75;;;;;;;-1.86;76.02;100176.16;6123385;23;20403;-72
2022/12/09 05:39:11;;;;;;;46.33;23.88;;;;;;;-1.68;75.49;100175.03;6123237;23;20077;-72
2022/12/09 05:41:38;;;;;;;48.00;24.08;;;;;;;-1.59;75.21;100173.59;6123359;23;20308;-71
2022/12/09 05:44:04;;;;;;;42.63;23.20;;;;;;;-1.73;75.42;100176.25;6097797;23;20101;-72
2022/12/09 05:46:31;;;;;;;47.88;24.33;;;;;;;-1.78;76.25;100173.91;6123732;23;20010;-72
2022/12/09 05:48:58;;;;;;;41.22;22.85;;;;;;;-2.65;77.81;100179.13;6123373;23;20029;-72
2022/12/09 05:51:28;;;;;;;43.70;22.75;;;;;;;-2.60;77.85;100187.59;6087469;23;20022;-72
2022/12/09 05:53:56;;;;;;;48.67;23.08;;;;;;;-2.11;77.27;100184.69;6093970;23;20023;-72
2022/12/09 05:56:23;;;;;;;45.38;22.65;;;;;;;-2.00;76.40;100173.50;6093699;23;20359;-72
2022/12/09 05:58:51;;;;;;;45.10;22.33;;;;;;;-1.82;76.01;100179.44;6093708;23;20026;-72
2022/12/09 06:01:19;;;;;;;49.05;24.45;;;;;;;-1.87;75.83;100179.72;6093574;23;20061;-72
2022/12/09 06:03:46;;;;;;;50.63;23.50;;;;;;;-1.79;75.41;100174.81;6093910;23;20026;-73
2022/12/09 06:06:16;;;;;;;53.10;23.88;;;;;;;-1.79;75.97;100181.88;6093491;23;20026;-72
2022/12/09 06:08:44;;;;;;;44.47;21.85;;;;;;;-1.92;75.82;100173.91;6093336;23;20485;-72
2022/12/09 06:11:17;;;;;;;46.45;23.30;;;;;;;-2.00;76.80;100171.72;6094274;23;20038;-73
2022/12/09 06:13:45;;;;;;;50.03;24.67;;;;;;;-1.92;76.23;100174.75;6094117;23;20077;-72
2022/12/09 06:16:13;;;;;;;45.22;21.98;;;;;;;-1.84;75.86;100176.91;6094146;23;20403;-75
2022/12/09 06:18:53;;;;;;;44.50;23.42;;;;;;;-1.76;75.55;100171.16;6093421;23;20010;-75
2022/12/09 06:21:20;;;;;;;47.95;22.45;;;;;;;-1.91;75.40;100181.69;6093376;23;20026;-75
2022/12/09 06:23:48;;;;;;;45.47;23.92;;;;;;;-1.79;75.60;100182.72;6093827;23;20050;-75
2022/12/09 06:26:23;;;;;;;48.67;23.60;;;;;;;-1.72;75.05;100177.94;6094175;23;20022;-75
2022/12/09 06:28:51;;;;;;;42.95;22.55;;;;;;;-1.58;74.69;100179.69;6095651;23;20026;-75
2022/12/09 06:31:19;;;;;;;41.72;23.27;;;;;;;-1.77;75.38;100188.75;6095787;23;20406;-75
2022/12/09 06:33:46;;;;;;;44.35;21.48;;;;;;;-1.86;75.50;100190.13;6074841;23;20359;-75
2022/12/09 06:36:27;;;;;;;46.28;23.25;;;;;;;-1.64;75.05;100188.84;6124871;23;20026;-75
2022/12/09 06:38:55;;;;;;;;;;;;;;;-1.67;75.07;100187.22;6125911;23;20026;-75
2022/12/09 06:41:23;;;;;;;45.25;22.35;;;;;;;-1.72;75.20;100193.69;6125193;23;19916;-75
2022/12/09 06:43:50;;;;;;;50.05;24.15;;;;;;;-1.73;74.71;100199.91;6124160;23;20050;-75
2022/12/09 06:46:24;;;;;;;51.97;25.42;;;;;;;-1.73;75.06;100198.13;6100107;23;20018;-76
2022/12/09 06:48:53;;;;;;;44.80;23.23;;;;;;;-1.51;74.82;100191.53;6111033;23;20062;-74
2022/12/09 06:51:32;;;;;;;47.60;22.83;;;;;;;-1.78;74.96;100200.22;6125789;23;20028;-75
2022/12/09 06:54:02;;;;;;;50.70;24.85;;;;;;;-1.67;75.10;100196.91;6121520;23;20050;-75
2022/12/09 06:56:32;;;;;;;48.72;23.63;;;;;;;-1.55;74.63;100197.94;6109351;23;20423;-75
2022/12/09 06:59:20;;;;;;;64.00;24.33;;;;;;;-1.79;75.06;100202.91;6095547;23;20046;-75
2022/12/09 07:01:47;;;;;;;50.33;23.48;;;;;;;-1.75;75.09;100202.66;6093823;23;20109;-74
2022/12/09 07:04:14;;;;;;;43.90;21.90;;;;;;;-1.60;74.58;100203.47;6095466;23;20384;-75
2022/12/09 07:06:43;;;;;;;51.47;23.05;;;;;;;-1.56;74.60;100196.25;6095549;23;20030;-75
2022/12/09 07:09:19;;;;;;;50.70;24.35;;;;;;;-1.64;75.08;100200.19;6094247;23;20355;-75
2022/12/09 07:11:47;;;;;;;47.63;23.55;;;;;;;-1.63;74.69;100203.66;6079392;23;20049;-74
2022/12/09 07:18:14;;;;;;;49.10;22.90;;;;;;;-1.72;75.36;100205.06;6092460;23;20021;-75
2022/12/09 07:20:41;;;;;;;58.42;22.95;;;;;;;-2.01;76.41;100206.84;6091164;23;20109;-75
2022/12/09 07:23:12;;;;;;;93.43;23.40;;;;;;;-2.56;77.19;100207.47;6093295;23;20022;-74
2022/12/09 07:25:41;;;;;;;52.17;24.25;;;;;;;-2.33;77.97;100217.50;6093811;23;20030;-75
2022/12/09 07:28:08;;;;;;;52.05;23.83;;;;;;;-1.98;77.14;100211.09;6093453;23;20108;-74
2022/12/09 07:30:56;;;;;;;49.50;23.67;;;;;;;-2.08;76.34;100215.19;6082469;23;20022;-75
2022/12/09 07:33:23;;;;;;;56.15;25.23;;;;;;;-2.01;76.56;100209.47;6092748;23;20027;-75
2022/12/09 07:35:54;;;;;;;56.33;25.65;;;;;;;-1.82;76.30;100211.81;6090940;23;20026;-75
2022/12/09 07:38:23;;;;;;;50.50;23.85;;;;;;;-1.64;75.39;100209.88;6093439;23;20347;-74
2022/12/09 07:40:50;;;;;;;54.20;25.55;;;;;;;-1.55;74.69;100208.44;6092696;23;20030;-74
2022/12/09 07:43:17;;;;;;;61.45;26.23;;;;;;;-1.79;75.56;100214.28;6091472;23;20451;-75
2022/12/09 07:45:44;;;;;;;58.65;24.52;;;;;;;-1.64;75.78;100209.88;6092712;23;20074;-74
2022/12/09 07:48:11;;;;;;;65.00;26.38;;;;;;;-1.49;75.32;100214.19;6091781;23;20023;-74
2022/12/09 07:50:39;;;;;;;111.55;25.42;;;;;;;-1.39;74.67;100219.72;6093077;23;20022;-74
2022/12/09 07:53:05;;;;;;;134.45;26.40;;;;;;;-1.40;74.39;100220.66;6092023;23;20081;-74
2022/12/09 07:55:33;;;;;;;78.82;26.48;;;;;;;-1.48;74.44;100218.50;6092452;23;20022;-74
2022/12/09 07:58:00;;;;;;;162.10;27.77;;;;;;;-1.91;75.95;100215.88;6093260;23;20051;-74
2022/12/09 08:00:27;;;;;;;96.15;26.80;;;;;;;-1.71;76.14;100216.47;6121386;23;20026;-74
2022/12/09 08:02:54;;;;;;;71.20;26.83;;;;;;;-1.81;76.55;100217.94;6122791;23;20435;-74
2022/12/09 08:05:21;;;;;;;101.47;27.08;;;;;;;-1.55;75.81;100216.34;6122267;23;20089;-74
2022/12/09 08:07:48;;;;;;;81.28;26.10;;;;;;;-1.71;76.48;100219.09;6121701;23;20081;-74
2022/12/09 08:10:15;;;;;;;70.43;27.05;;;;;;;-2.00;77.37;100226.94;6122479;23;20048;-74
2022/12/09 08:12:44;;;;;;;66.10;25.92;;;;;;;-1.59;76.80;100215.69;6121890;23;20077;-74
2022/12/09 08:15:11;;;;;;;61.65;27.63;;;;;;;-1.31;75.31;100219.22;6121171;23;20018;-75
2022/12/09 08:17:39;;;;;;;66.50;25.98;;;;;;;-1.25;74.71;100213.59;6121860;23;20028;-74
2022/12/09 08:20:06;;;;;;;75.47;24.60;;;;;;;-1.31;74.78;100217.44;6121144;23;20064;-74
2022/12/09 08:22:34;;;;;;;106.20;26.38;;;;;;;-1.67;75.79;100215.31;6121866;23;20454;-74
2022/12/09 08:25:01;;;;;;;68.35;26.67;;;;;;;-1.58;76.12;100212.09;6124235;23;20073;-75
2022/12/09 08:27:29;;;;;;;67.65;26.40;;;;;;;-1.37;75.69;100215.19;6122339;23;20049;-74
2022/12/09 08:29:55;;;;;;;95.30;27.73;;;;;;;-1.57;75.44;100216.44;6122876;23;20049;-74
2022/12/09 08:32:25;;;;;;;94.25;27.02;;;;;;;-1.57;76.09;100215.59;6108285;23;20022;-74
2022/12/09 08:35:13;;;;;;;85.75;24.75;;;;;;;-1.86;76.29;100223.47;6077519;23;20087;-75
2022/12/09 08:37:44;;;;;;;83.75;26.85;;;;;;;-2.31;78.73;100229.69;6076212;23;20033;-74
2022/12/09 08:40:11;;;;;;;99.10;24.98;;;;;;;-2.05;77.20;100223.75;6119129;23;20026;-74
2022/12/09 08:42:39;;;;;;;75.10;26.50;;;;;;;-2.50;79.43;100235.19;6121405;23;20045;-74
2022/12/09 08:45:06;;;;;;;57.90;24.50;;;;;;;-2.11;78.32;100227.56;6121848;23;20454;-73
2022/12/09 08:47:34;;;;;;;67.22;23.55;;;;;;;-1.95;76.82;100232.78;6120605;23;20018;-74
2022/12/09 08:50:01;;;;;;;64.97;24.70;;;;;;;-1.81;77.38;100231.94;6123177;23;20117;-74
2022/12/09 08:52:28;;;;;;;57.38;23.88;;;;;;;-2.01;76.38;100227.88;6122664;23;20014;-74
2022/12/09 08:54:58;;;;;;;82.68;28.58;;;;;;;-1.77;77.19;100233.44;6089686;23;20018;-75
2022/12/09 08:57:31;;;;;;;85.95;30.60;;;;;;;-1.52;75.89;100227.50;6076454;23;20031;-74
2022/12/09 08:59:58;;;;;;;75.65;27.25;;;;;;;-1.38;75.64;100238.03;6094602;23;20332;-74
2022/12/09 09:02:25;;;;;;;91.57;27.00;;;;;;;-1.56;75.60;100236.53;6122063;23;20097;-74
2022/12/09 09:04:52;;;;;;;101.82;25.58;;;;;;;-1.70;75.72;100239.19;6120403;23;20336;-74
2022/12/09 09:07:20;;;;;;;110.00;25.27;;;;;;;-2.36;78.42;100243.94;6122378;23;20043;-74
2022/12/09 09:09:47;;;;;;;68.15;25.35;;;;;;;-1.80;77.46;100243.31;6121113;23;20026;-74
2022/12/09 09:12:14;;;;;;;72.50;26.33;;;;;;;-1.76;76.68;100245.63;6121683;23;20020;-74
2022/12/09 09:14:41;;;;;;;63.65;24.83;;;;;;;-1.71;76.45;100242.75;6121270;23;20100;-75
2022/12/09 09:17:11;;;;;;;61.22;24.42;;;;;;;-1.68;76.08;100245.16;6121070;23;20029;-74
2022/12/09 09:19:38;;;;;;;55.58;22.80;;;;;;;-1.56;76.08;100231.28;6121099;23;20022;-75
2022/12/09 09:22:05;;;;;;;57.58;22.63;;;;;;;-1.48;75.28;100239.53;6120094;23;20049;-75
2022/12/09 09:24:32;;;;;;;51.95;21.67;;;;;;;-1.57;74.67;100239.28;6112838;23;20022;-75
2022/12/09 09:26:59;;;;;;;51.17;21.98;;;;;;;-1.89;74.90;100248.19;6122646;23;20114;-75
2022/12/09 09:29:26;;;;;;;54.08;23.13;;;;;;;-1.59;75.63;100243.78;6120349;23;20052;-75
2022/12/09 09:31:53;;;;;;;55.83;23.27;;;;;;;-1.59;75.14;100235.88;6120844;23;20026;-75
2022/12/09 09:34:23;;;;;;;109.22;24.23;;;;;;;-2.16;76.27;100253.28;6084914;23;20032;-74
2022/12/09 09:36:50;;;;;;;108.28;25.70;;;;;;;-2.67;77.42;100246.66;6090861;23;20035;-75
2022/12/09 09:39:18;;;;;;;58.67;23.48;;;;;;;-1.93;76.53;100244.03;6092120;23;20086;-75
2022/12/09 09:42:00;;;;;;;56.90;21.05;;;;;;;-1.91;75.79;100250.03;6091902;23;20057;-75
2022/12/09 09:44:45;;;;;;;50.47;23.10;;;;;;;-1.90;75.83;100246.47;6079563;23;20025;-73
2022/12/09 09:47:16;;;;;;;47.88;20.42;;;;;;;-1.78;75.48;100242.28;6091323;23;20029;-75
2022/12/09 09:49:55;;;;;;;58.58;23.27;;;;;;;-1.59;75.45;100242.00;6092311;23;20033;-75
2022/12/09 09:52:25;;;;;;;58.67;23.77;;;;;;;-1.74;75.28;100245.56;6092538;23;20080;-74
2022/12/09 09:54:52;;;;;;;51.35;22.67;;;;;;;-1.40;74.79;100234.66;6093089;23;20026;-74
2022/12/09 09:57:31;;;;;;;53.92;24.25;;;;;;;-1.55;75.10;100232.97;6055718;23;20066;-74
2022/12/09 10:00:19;;;;;;;60.38;24.15;;;;;;;-1.69;75.25;100236.44;6090535;23;20022;-75
2022/12/09 10:02:58;;;;;;;57.72;22.90;;;;;;;-1.80;76.06;100243.31;6092814;23;20022;-74
2022/12/09 10:05:48;;;;;;;65.15;22.95;;;;;;;-1.71;75.68;100232.25;6092794;23;20105;-74
2022/12/09 10:08:33;;;;;;;54.42;23.60;;;;;;;-1.64;75.42;100228.28;6090153;23;20023;-74
2022/12/09 10:11:15;;;;;;;59.50;25.15;;;;;;;-1.34;74.84;100219.41;6120843;23;20014;-74
2022/12/09 10:13:56;;;;;;;63.97;24.70;;;;;;;-1.40;75.02;100212.78;6112112;23;20358;-74
2022/12/09 10:16:32;;;;;;;57.03;24.58;;;;;;;-1.64;75.69;100215.97;6094486;23;20077;-74
2022/12/09 10:19:00;;;;;;;51.55;24.45;;;;;;;-1.35;75.30;100215.94;6102115;23;20085;-74
2022/12/09 10:21:42;;;;;;;55.50;23.58;;;;;;;-1.41;74.98;100214.53;6090480;23;20042;-74
2022/12/09 10:24:18;;;;;;;49.80;22.45;;;;;;;-1.39;74.78;100217.94;6106492;23;20018;-74
2022/12/09 10:27:13;;;;;;;70.13;23.63;;;;;;;-1.59;74.98;100220.94;6120696;23;20026;-74
2022/12/09 10:30:06;;;;;;;48.53;22.33;;;;;;;-1.38;74.80;100216.97;6092113;23;20025;-74
2022/12/09 10:32:44;;;;;;;56.25;24.00;;;;;;;-1.66;76.30;100219.63;6091800;23;20037;-75
2022/12/09 10:35:29;;;;;;;47.72;20.92;;;;;;;-1.52;75.30;100218.78;6119998;23;20029;-75
2022/12/09 10:38:09;;;;;;;54.58;22.23;;;;;;;-1.63;75.77;100214.19;6073858;23;20030;-74
2022/12/09 10:40:53;;;;;;;50.67;22.70;;;;;;;-1.45;75.17;100209.56;6084041;23;20026;-73
2022/12/09 10:43:39;;;;;;;91.38;22.02;;;;;;;-2.04;76.67;100214.91;6092592;23;20053;-74
2022/12/09 10:46:19;;;;;;;57.35;21.55;;;;;;;-1.79;76.58;100219.53;6108828;23;20072;-73
2022/12/09 10:48:47;;;;;;;52.10;21.58;;;;;;;-1.92;76.92;100219.44;6073004;23;20118;-75
2022/12/09 10:51:29;;;;;;;49.58;20.88;;;;;;;-2.04;77.44;100209.66;6078229;23;20025;-75
2022/12/09 10:54:03;;;;;;;59.40;20.98;;;;;;;-1.98;76.42;100214.56;6066216;23;20029;-74
2022/12/09 10:56:36;;;;;;;46.25;21.65;;;;;;;-1.83;76.67;100212.78;6120069;23;20018;-74
2022/12/09 10:59:22;;;;;;;49.45;21.52;;;;;;;-1.55;75.33;100204.03;6103093;23;20038;-74
2022/12/09 11:01:52;;;;;;;40.33;18.40;;;;;;;-1.64;75.26;100196.72;6099231;23;20387;-74
2022/12/09 11:04:31;;;;;;;189.60;24.20;;;;;;;-1.49;74.56;100198.38;6118804;23;20022;-74
2022/12/09 11:07:11;;;;;;;43.25;17.80;;;;;;;-1.47;74.74;100201.78;6121126;23;20030;-74
2022/12/09 11:09:58;;;;;;;49.65;18.33;;;;;;;-1.54;75.00;100195.22;6091189;23;20448;-74
2022/12/09 11:12:26;;;;;;;39.15;18.33;;;;;;;-1.54;74.19;100191.72;6092384;23;20117;-74
2022/12/09 11:15:01;;;;;;;33.60;16.70;;;;;;;-1.54;74.29;100189.97;6094366;23;20035;-73
2022/12/09 11:17:34;;;;;;;64.53;17.25;;;;;;;-1.63;74.20;100190.53;6093675;23;20030;-74
2022/12/09 11:20:04;;;;;;;115.70;18.05;;;;;;;-1.63;74.00;100187.88;6116938;23;20025;-74
2022/12/09 11:22:38;;;;;;;36.47;17.45;;;;;;;-1.71;74.57;100184.91;6093717;23;20078;-74
2022/12/09 11:25:30;;;;;;;33.20;17.20;;;;;;;-1.57;74.66;100181.41;6103053;23;20649;-74
2022/12/09 11:28:07;;;;;;;39.92;16.05;;;;;;;-1.54;74.44;100182.06;6093686;23;20375;-74
2022/12/09 11:30:39;;;;;;;80.60;19.08;;;;;;;-1.53;74.07;100178.47;6091329;23;20018;-74
2022/12/09 11:33:28;;;;;;;;;;;;;;;-1.84;75.07;100181.31;6115370;23;20026;-74
2022/12/09 11:36:21;;;;;;;58.22;16.23;;;;;;;-1.77;74.61;100175.59;6121594;23;19917;-74
2022/12/09 11:38:50;;;;;;;35.75;17.52;;;;;;;-1.59;74.20;100173.59;6121993;23;20101;-75